8U974 / 5A-ONO 7700 Squawk Report (6th of October, 2021)

Aircraft A320 Reg No. 5A-ONO Age 8 years old
Model A320 Jet engines 2 First flight 11-01-13
Registered 24-01-13 Rollout N/A Delivered 24-01-13
Construction No. 5448 Line No. N/A Series 214
ADSHEX 018070 Airline name Afriqiyah Airways Owner N/A
Airfield based Tripoli~Tripoli~5A First tracked N/A

Flight history for 5A-ONO

Route Flight No Date Playback
Tripoli Intl (TIP) - Istanbul Airport (IST) 8U1970 2021-10-19 23:04:00
???? N/A 2021-10-19 16:59:00
Istanbul Airport (IST) - Misrata Airport (MRA) 8U975 2021-10-19 15:11:00
Misrata Airport (MRA) - Istanbul Airport (IST) 8U974 2021-10-19 10:30:00
???? 8U1975 2021-10-19 07:37:00
???? 8U1974 2021-10-18 18:09:00
Istanbul Airport (IST) - Misrata Airport (MRA) 8U975 2021-10-18 13:46:00
Misrata Airport (MRA) - Istanbul Airport (IST) 8U974 2021-10-18 00:09:00
???? N/A 2021-10-17 21:29:00
Sebha (SEB) - Mitiga Airport (MJI) 8U211 2021-10-17 19:22:00
Mitiga Airport (MJI) - Sebha (SEB) 8U210 2021-10-17 13:24:00
???? N/A 2021-10-17 06:54:00
Istanbul Airport (IST) - Misrata Airport (MRA) 8U975 2021-10-15 21:06:00
Misrata Airport (MRA) - Istanbul Airport (IST) 8U974 2021-10-15 15:36:00
???? N/A 2021-10-15 11:07:00
Sebha (SEB) - Mitiga Airport (MJI) 8U211 2021-10-14 16:09:00
Mitiga Airport (MJI) - Sebha (SEB) 8U210 2021-10-14 15:29:00
???? N/A 2021-10-14 12:01:00
Istanbul Airport (IST) - Misrata Airport (MRA) 8U975 2021-10-14 06:29:00
Misrata Airport (MRA) - Istanbul Airport (IST) 8U974 2021-10-14 01:40:00
Time Lat Lon Altitude Heading Speed Vertical Rate
2021-10-06 22:24:53 GMT 34.103119 15.773509 9,875 206 271 0
2021-10-06 22:24:50 GMT 34.106544 15.775452 9,875 206 271 0
2021-10-06 22:23:19 GMT 34.217468 15.840604 12,150 205 313 -2240
2021-10-06 22:23:15 GMT 34.223602 15.844023 12,325 193 329 -2432
2021-10-06 22:22:43 GMT 34.269665 15.860825 13,550 193 333 -2112
2021-10-06 22:22:42 GMT 34.271210 15.861231 13,600 193 333 -2112
2021-10-06 22:22:41 GMT 34.272594 15.861626 13,625 193 333 -2112
2021-10-06 22:22:36 GMT 34.279858 15.863514 13,800 193 336 -1920
2021-10-06 22:22:35 GMT 34.281509 15.863921 13,825 192 337 -1856
2021-10-06 22:22:34 GMT 34.283211 15.864372 13,850 192 338 -1792
2021-10-06 22:22:33 GMT 34.284851 15.864818 13,875 192 339 -1728
2021-10-06 22:22:31 GMT 34.287819 15.865574 13,925 192 340 -1600
2021-10-06 22:22:30 GMT 34.289337 15.865939 13,950 192 341 -1536
2021-10-06 22:22:29 GMT 34.290756 15.866332 13,975 192 342 -1472
2021-10-06 22:22:27 GMT 34.293777 15.867060 14,025 192 343 -1408
2021-10-06 22:22:26 GMT 34.295792 15.867565 14,050 192 345 -1344
2021-10-06 22:22:24 GMT 34.299042 15.868350 14,100 191 349 -1280
2021-10-06 22:22:23 GMT 34.300713 15.868778 14,125 191 349 -1280
2021-10-06 22:22:22 GMT 34.302383 15.869134 14,150 191 351 -1280
2021-10-06 22:22:19 GMT 34.306320 15.870031 14,200 190 353 -1344
2021-10-06 22:22:18 GMT 34.308022 15.870380 14,225 190 355 -1344
2021-10-06 22:22:17 GMT 34.308884 15.870536 14,225 189 356 -1344
2021-10-06 22:22:16 GMT 34.311420 15.871010 14,250 188 359 -1408
2021-10-06 22:22:15 GMT 34.313187 15.871320 14,275 187 362 -1472
2021-10-06 22:22:14 GMT 34.314880 15.871545 14,300 185 363 -1472
2021-10-06 22:22:12 GMT 34.318588 15.871993 14,350 184 364 -1472
2021-10-06 22:22:11 GMT 34.320312 15.872097 14,375 183 367 -1472
2021-10-06 22:22:09 GMT 34.329071 15.871937 14,475 177 374 -1536
2021-10-06 22:22:06 GMT 34.329071 15.871937 14,500 174 377 -1600
2021-10-06 22:22:04 GMT 34.333763 15.871353 14,575 171 383 -1600
2021-10-06 22:22:02 GMT 34.335663 15.871040 14,600 171 383 -1600
2021-10-06 22:21:59 GMT 34.341213 15.869808 14,675 167 388 -1600
2021-10-06 22:21:58 GMT 34.342804 15.869415 14,700 165 392 -1664
2021-10-06 22:21:56 GMT 34.346466 15.868238 14,750 162 395 -1600
2021-10-06 22:21:54 GMT 34.349670 15.867004 14,800 160 399 -1600
2021-10-06 22:21:52 GMT 34.353363 15.865459 14,875 158 402 -1600
2021-10-06 22:21:51 GMT 34.355164 15.864650 14,900 158 402 -1600
2021-10-06 22:21:49 GMT 34.358437 15.862942 14,925 154 408 -1664
2021-10-06 22:21:48 GMT 34.360382 15.861904 14,975 153 410 -1664
2021-10-06 22:21:46 GMT 34.363449 15.860054 15,000 152 412 -1664
2021-10-06 22:21:45 GMT 34.365326 15.858879 15,050 151 413 -1664
2021-10-06 22:21:44 GMT 34.366928 15.857812 15,075 150 415 -1728
2021-10-06 22:21:43 GMT 34.370407 15.855345 15,125 148 419 -1664
2021-10-06 22:21:41 GMT 34.372124 15.854073 15,150 147 421 -1728
2021-10-06 22:21:39 GMT 34.375381 15.851498 15,200 145 427 -1664
2021-10-06 22:21:38 GMT 34.376965 15.850182 15,225 145 427 -1664
2021-10-06 22:21:36 GMT 34.380341 15.847330 15,275 145 429 -1664
2021-10-06 22:21:34 GMT 34.383408 15.844751 15,325 145 433 -1728
2021-10-06 22:21:33 GMT 34.385159 15.843372 15,350 145 433 -1728
2021-10-06 22:21:32 GMT 34.386612 15.842117 15,375 145 434 -1728
2021-10-06 22:21:28 GMT 34.392467 15.837421 15,475 146 440 -1920
2021-10-06 22:21:27 GMT 34.393211 15.836849 15,525 146 440 -1920
2021-10-06 22:21:25 GMT 34.396843 15.833931 15,600 145 443 -2304
2021-10-06 22:21:24 GMT 34.398605 15.832476 15,625 144 445 -2560
2021-10-06 22:21:23 GMT 34.400379 15.831070 15,650 144 446 -2816
2021-10-06 22:21:21 GMT 34.403870 15.827992 15,750 142 449 -3392
2021-10-06 22:21:20 GMT 34.405827 15.826206 15,800 141 450 -3712
2021-10-06 22:21:19 GMT 34.407166 15.824909 15,825 140 451 -4032
2021-10-06 22:21:18 GMT 34.410049 15.822050 16,000 138 453 -4352
2021-10-06 22:21:16 GMT 34.412018 15.819969 16,025 137 453 -4352
2021-10-06 22:21:14 GMT 34.415977 15.815563 16,175 136 454 -4352
2021-10-06 22:21:12 GMT 34.419617 15.811176 16,300 133 456 -4544
2021-10-06 22:21:11 GMT 34.419617 15.811176 16,375 133 458 -4736
2021-10-06 22:21:09 GMT 34.424076 15.805321 16,625 131 459 -4928
2021-10-06 22:21:06 GMT 34.426208 15.802320 16,725 129 460 -4864
2021-10-06 22:21:05 GMT 34.427662 15.800171 16,825 128 460 -4800
2021-10-06 22:21:03 GMT 34.430035 15.796566 16,950 127 462 -4672
2021-10-06 22:21:02 GMT 34.431427 15.794304 17,050 126 463 -4608
2021-10-06 22:21:00 GMT 34.434319 15.789585 17,200 124 465 -4544
2021-10-06 22:20:49 GMT 34.447403 15.762746 18,100 114 473 -4672
2021-10-06 22:20:44 GMT 34.451866 15.750732 18,250 113 474 -4608
2021-10-06 22:20:37 GMT 34.457314 15.732880 18,975 107 481 -4352
2021-10-06 22:20:27 GMT 34.462692 15.707310 19,750 100 484 -5952
2021-10-06 22:20:23 GMT 34.464203 15.696212 20,150 97 485 -5760
2021-10-06 22:20:19 GMT 34.465042 15.688248 20,400 95 486 -5696
2021-10-06 22:20:15 GMT 34.465897 15.675304 20,875 92 484 -6592
2021-10-06 22:20:10 GMT 34.466160 15.663013 21,350 89 482 -7168
2021-10-06 22:20:05 GMT 34.465759 15.648959 21,950 85 479 -6848
2021-10-06 22:20:00 GMT 34.464809 15.636063 22,475 82 476 -6464
2021-10-06 22:19:55 GMT 34.463104 15.622559 23,000 79 474 -5952
2021-10-06 22:19:49 GMT 34.460712 15.608826 23,475 76 474 -4928
2021-10-06 22:19:45 GMT 34.458252 15.597447 23,825 73 476 -4480
2021-10-06 22:19:40 GMT 34.454567 15.583649 24,200 69 477 -4736
2021-10-06 22:19:32 GMT 34.448730 15.566170 24,750 65 478 -4544
2021-10-06 22:19:30 GMT 34.445908 15.558815 24,975 64 479 -4352
2021-10-06 22:19:25 GMT 34.441635 15.547952 25,275 64 481 -4096
2021-10-06 22:19:19 GMT 34.435867 15.532482 25,700 67 484 -4928
2021-10-06 22:19:16 GMT 34.433666 15.525742 26,375 69 485 -5504
2021-10-06 22:19:11 GMT 34.429504 15.512583 26,375 69 485 -5504
2021-10-06 22:19:09 GMT 34.428127 15.508118 26,525 69 484 -5440
2021-10-06 22:19:05 GMT 34.424698 15.497337 26,900 69 483 -5824
2021-10-06 22:18:59 GMT 34.420258 15.483398 27,450 68 481 -6144
2021-10-06 22:18:54 GMT 34.416275 15.471048 27,925 68 478 -6016
2021-10-06 22:18:50 GMT 34.412251 15.458565 28,400 68 478 -5312
2021-10-06 22:18:46 GMT 34.409039 15.448666 28,725 68 479 -4288
2021-10-06 22:18:39 GMT 34.403919 15.433159 29,150 68 480 -4224
2021-10-06 22:18:35 GMT 34.399933 15.420993 29,500 68 482 -4352
2021-10-06 22:18:30 GMT 34.396236 15.409698 29,825 68 482 -4672
2021-10-06 22:18:25 GMT 34.392014 15.396554 30,225 69 482 -5120
2021-10-06 22:18:19 GMT 34.387527 15.382036 30,700 70 480 -4736
2021-10-06 22:18:14 GMT 34.384232 15.370209 31,075 72 481 -4160
2021-10-06 22:18:10 GMT 34.381248 15.357742 31,375 75 481 -3392
2021-10-06 22:18:05 GMT 34.378693 15.344930 31,625 78 483 -2368
2021-10-06 22:18:00 GMT 34.376453 15.331249 31,825 81 485 -1024
2021-10-06 22:17:54 GMT 34.374729 15.317001 31,900 83 490 -384
2021-10-06 22:17:49 GMT 34.373520 15.302946 31,925 85 490 0
2021-10-06 22:17:45 GMT 34.372742 15.291455 31,925 85 490 960
2021-10-06 22:17:40 GMT 34.371845 15.277462 31,875 85 490 1088
2021-10-06 22:17:35 GMT 34.370956 15.264102 31,775 85 490 1024
2021-10-06 22:17:30 GMT 34.370075 15.250225 31,700 85 490 832
2021-10-06 22:17:25 GMT 34.369171 15.236524 31,650 85 489 576
2021-10-06 22:17:20 GMT 34.368305 15.222988 31,600 85 489 704
2021-10-06 22:17:15 GMT 34.367340 15.208273 31,525 85 488 832
2021-10-06 22:17:10 GMT 34.366444 15.194836 31,450 85 488 768
2021-10-06 22:17:04 GMT 34.365421 15.178928 31,375 85 487 704
2021-10-06 22:17:00 GMT 34.364677 15.167942 31,350 85 487 704
2021-10-06 22:16:54 GMT 34.363605 15.151806 31,275 85 486 832
2021-10-06 22:16:50 GMT 34.362907 15.140762 31,200 85 485 896
2021-10-06 22:16:44 GMT 34.361938 15.126548 31,125 85 485 1216
2021-10-06 22:16:39 GMT 34.361023 15.112479 31,000 85 486 1408
2021-10-06 22:16:35 GMT 34.360115 15.099106 30,900 85 486 1280
2021-10-06 22:16:29 GMT 34.359192 15.084845 30,800 85 487 1280
2021-10-06 22:16:25 GMT 34.358345 15.071583 30,675 85 487 1408
2021-10-06 22:16:20 GMT 34.357506 15.059052 30,575 85 488 1472
2021-10-06 22:16:14 GMT 34.356483 15.043030 30,425 85 490 1536
2021-10-06 22:16:10 GMT 34.355785 15.032444 30,325 85 491 1408
2021-10-06 22:16:04 GMT 34.354759 15.015564 30,200 85 493 1088
2021-10-06 22:15:59 GMT 34.353973 15.002728 30,125 85 493 960
2021-10-06 22:15:53 GMT 34.353012 14.987369 30,050 85 493 960
2021-10-06 22:15:50 GMT 34.352386 14.977169 29,975 85 494 960
2021-10-06 22:15:44 GMT 34.351227 14.959623 29,875 84 493 832
2021-10-06 22:15:39 GMT 34.350220 14.947012 29,825 84 494 704
2021-10-06 22:15:35 GMT 34.349121 14.936474 29,775 81 493 576
2021-10-06 22:15:33 GMT 34.348434 14.931093 29,775 80 493 576
2021-10-06 22:15:29 GMT 34.346741 14.920555 29,725 76 492 704
2021-10-06 22:15:24 GMT 34.343590 14.905815 29,650 72 491 832
2021-10-06 22:15:20 GMT 34.340889 14.895573 29,600 70 491 896
2021-10-06 22:15:13 GMT 34.334557 14.876232 29,500 64 489 832
2021-10-06 22:15:09 GMT 34.331589 14.868706 29,450 63 489 832
2021-10-06 22:15:05 GMT 34.327011 14.858168 29,400 60 488 704
2021-10-06 22:15:03 GMT 34.325409 14.854749 29,375 58 488 704
2021-10-06 22:14:59 GMT 34.320511 14.845220 29,350 56 485 896
2021-10-06 22:14:50 GMT 34.307789 14.824448 29,250 49 482 832
2021-10-06 22:14:44 GMT 34.299969 14.813862 29,200 45 480 576
2021-10-06 22:14:42 GMT 34.295334 14.808113 29,150 45 480 576
2021-10-06 22:14:39 GMT 34.291397 14.803573 29,150 42 479 512
2021-10-06 22:14:32 GMT 34.278809 14.790681 29,100 38 476 576
2021-10-06 22:14:29 GMT 34.274460 14.786701 29,050 35 475 640
2021-10-06 22:14:24 GMT 34.265007 14.778900 29,000 32 472 640
2021-10-06 22:14:22 GMT 34.262074 14.776669 28,975 30 471 640
2021-10-06 22:14:19 GMT 34.256424 14.772632 28,950 28 471 640
2021-10-06 22:14:14 GMT 34.245224 14.765625 28,875 25 469 704
2021-10-06 22:14:12 GMT 34.243240 14.764504 28,875 23 468 640
2021-10-06 22:13:47 GMT 34.191238 14.746119 28,700 11 460 768
2021-10-06 22:13:45 GMT 34.185883 14.745334 28,575 5 457 832
2021-10-06 22:13:38 GMT 34.172462 14.744167 28,475 1 456 640
2021-10-06 22:13:35 GMT 34.164642 14.744045 28,450 359 454 640
2021-10-06 22:13:29 GMT 34.152740 14.744493 28,375 357 452 832
2021-10-06 22:13:25 GMT 34.143860 14.745334 28,325 354 451 576
2021-10-06 22:13:19 GMT 34.131866 14.747184 28,275 352 450 256
2021-10-06 22:13:14 GMT 34.122372 14.749146 28,250 350 448 192
2021-10-06 22:13:12 GMT 34.117577 14.750233 28,250 350 447 256
2021-10-06 22:13:09 GMT 34.112183 14.751444 28,225 350 446 384
2021-10-06 22:13:04 GMT 34.101841 14.753780 28,200 350 445 576
2021-10-06 22:13:02 GMT 34.096767 14.754925 28,175 350 445 768
2021-10-06 22:12:58 GMT 34.089878 14.756470 28,125 350 444 832
2021-10-06 22:12:55 GMT 34.082012 14.758244 28,075 350 444 832
2021-10-06 22:12:48 GMT 34.070435 14.760861 28,000 350 443 448
2021-10-06 22:12:45 GMT 34.061668 14.762878 27,975 350 443 640
2021-10-06 22:12:42 GMT 34.055420 14.764280 27,950 350 442 768
2021-10-06 22:12:39 GMT 34.051163 14.765233 27,925 350 442 768
2021-10-06 22:12:35 GMT 34.041870 14.767307 27,850 350 442 640
2021-10-06 22:12:29 GMT 34.030838 14.769829 27,800 350 441 448
2021-10-06 22:12:19 GMT 34.010513 14.774425 27,725 350 439 640
2021-10-06 22:12:14 GMT 33.999390 14.776948 27,650 350 438 1024
2021-10-06 22:12:09 GMT 33.990601 14.778853 27,575 350 439 1408
2021-10-06 22:12:04 GMT 33.979523 14.781376 27,425 350 440 1664
2021-10-06 22:11:59 GMT 33.970322 14.783450 27,325 350 441 1472
2021-10-06 22:11:54 GMT 33.961670 14.785412 27,225 350 441 1152
2021-10-06 22:11:48 GMT 33.948265 14.788399 27,100 350 441 896
2021-10-06 22:11:44 GMT 33.940632 14.790173 27,050 350 441 896
2021-10-06 22:11:38 GMT 33.928619 14.792862 26,975 350 441 832
2021-10-06 22:11:31 GMT 33.914246 14.796118 26,875 350 440 1152
2021-10-06 22:11:29 GMT 33.909897 14.797127 26,825 350 440 1152
2021-10-06 22:11:24 GMT 33.900410 14.799271 26,725 350 440 960
2021-10-06 22:11:21 GMT 33.890945 14.801387 26,650 350 440 960
2021-10-06 22:11:13 GMT 33.878632 14.804133 26,575 350 440 768
2021-10-06 22:11:08 GMT 33.868664 14.806366 26,525 350 439 384
2021-10-06 22:11:04 GMT 33.860916 14.808169 26,500 350 437 384
2021-10-06 22:10:58 GMT 33.848736 14.810886 26,475 350 436 384
2021-10-06 22:10:54 GMT 33.840961 14.812660 26,450 350 434 576
2021-10-06 22:10:48 GMT 33.829090 14.815350 26,375 350 433 1088
2021-10-06 22:10:43 GMT 33.819214 14.817530 26,275 350 433 1408
2021-10-06 22:10:35 GMT 33.800812 14.820613 26,050 350 435 1344
2021-10-06 22:09:27 GMT 33.669605 14.851112 25,000 350 429 896
2021-10-06 22:09:23 GMT 33.659454 14.853347 24,925 350 428 896
2021-10-06 22:09:17 GMT 33.649109 14.855646 24,825 350 427 1024
2021-10-06 22:09:14 GMT 33.642044 14.857235 24,775 350 427 1216
2021-10-06 22:09:04 GMT 33.623146 14.861469 24,550 350 427 1280
2021-10-06 22:08:57 GMT 33.609329 14.864558 24,425 350 427 1280
2021-10-06 22:08:54 GMT 33.603687 14.865761 24,350 350 427 1344
2021-10-06 22:08:48 GMT 33.591908 14.868393 24,225 350 427 1280
2021-10-06 22:08:35 GMT 33.566849 14.873975 23,825 350 426 1088
2021-10-06 22:08:23 GMT 33.544098 14.879132 23,825 350 423 640
2021-10-06 22:07:55 GMT 33.490036 14.891199 23,275 350 419 1856
2021-10-06 22:07:46 GMT 33.472874 14.895051 23,025 350 421 1280
2021-10-06 22:07:32 GMT 33.446247 14.900936 22,750 350 419 1024
2021-10-06 22:07:26 GMT 33.374954 14.916852 22,675 350 416 1280
2021-10-06 22:06:55 GMT 33.374954 14.916852 22,075 350 413 640
2021-10-06 22:06:48 GMT 33.362545 14.919602 22,050 350 409 1472
2021-10-06 22:06:10 GMT 33.289490 14.935858 21,250 350 405 832
2021-10-06 22:06:06 GMT 33.283920 14.937090 21,200 350 400 1216
2021-10-06 22:05:46 GMT 33.246956 14.945330 20,775 350 395 1152
2021-10-06 22:05:12 GMT 33.185833 14.958783 20,025 350 395 1152
2021-10-06 22:04:53 GMT 33.152641 14.966125 19,575 350 393 1536
2021-10-06 22:04:45 GMT 33.137695 14.969421 19,375 350 392 1472
2021-10-06 22:04:30 GMT 33.111420 14.975244 19,150 350 390 1472
2021-10-06 22:03:15 GMT 32.980396 15.004185 17,150 350 380 1472
2021-10-06 22:03:13 GMT 32.976196 15.005127 17,075 350 379 1792
2021-10-06 22:03:05 GMT 32.960907 15.008533 16,825 350 378 1536

Making use of Plane Finder data

You are free to use the raw flight data, aircraft information and images provided in this report for your own purposes provided the data is correctly attributed to Plane Finder. We ask that you please credit Plane Finder and link to planefinder.net in close proximity to the content.

Optionally one of the following logos (no smaller then 150x24px) can be used and must link to planefinder.net

Embedding the Plane Finder map

You are welcome to embed the Plane Finder playback map on your website to offer visitors a more interactive experience. We suggest using the following HTML code:

<iframe src="//planefinder.net/data/report/8U974-5A-ONO-7700-squawk-2021-10-06/map" width="800" height="600" seamless="seamless"></iframe>

Where our data comes from

Plane Finder has a global network of data feeds and antenna radars that receive data broadcast directly from aircraft. The primary technologies used are ADS-B and MLAT. We also show feeds from the FAA and a FLARM glider feed.

Click here to find out more about the Plane Finder network.

How we collect our data